Maryport, United Kingdom

3:42 PM GMT on February 13, 2016 (GMT +0000)
Broughton Moor, Maryport, Cumbria | | Change Station
CLOSE
Current Station
Personal Weather Station
Location: Broughton Moor,
Elevation: 358 ft
Nearby Weather Stations

Elev 358 ft 54.69 °N, 3.47 °W | Updated 6 seconds ago

Light Snow
Light Snow
38.3 °F
Feels Like 33 °F
N
6.9
Wind Variable Wind from NE
Gusts 14.5 mph

Today
High -- | Low -- °F
--% Chance of Precip.
Yesterday
High -- | Low -- °F
Precip. -- in
Pressure 29.24 in
Visibility 6.2 miles
Clouds Mostly Cloudy 200 ft
Scattered Clouds 5000 ft
Windchill 33 °F
Dew Point 34 °F
Humidity 86%
Rainfall 0.00 in
Snow Depth Not available.
7:41 AM 5:15 PM
Waxing Crescent, 31% visible
METAR EGOM 131450Z AUTO 06012KT 9999 -SN BKN002/// SCT050/// 01/01 Q0990
Pressure 29.24 in
Visibility 6.2 miles
Clouds Mostly Cloudy 200 ft
Scattered Clouds 5000 ft
Windchill 33 °F
Dew Point 34 °F
Humidity 86%
Rainfall 0.00 in
Snow Depth Not available.
7:41 AM 5:15 PM
Waxing Crescent, 31% visible
METAR EGOM 131450Z AUTO 06012KT 9999 -SN BKN002/// SCT050/// 01/01 Q0990

10-Day Weather Forecast

Almanac

Astronomy

Feb. 13, 2016 Rise Set
Actual Time
Civil Twilight
Nautical Twilight
Astronomical Twilight
Moon
Length of Visible Light
Length of Day
Tomorrow will be .
, % of the Moon is Illuminated

Today's Extremes

Country Highs Country Lows

Community

WunderPhotos

Upload Photos

1,892,587 photos uploaded!

WunderBlog® & News

Nearby

Air Quality

  Air Quality AQ Index Pollutant
Not available.

Snow Depth

Station Depth Elevation

Earthquake Activity

City Distance Mag. Time & Date
Minimum magnitude displayed is 2.5.

Coastal Water Temperatures

Place Temperature

Stations

Nearby Weather Stations

Station Location Temp. Windchill Dew Point Humidity Wind Precip. Elev Updated Type